^^
Meteo Knjazevac Station Historical Data
Daily Summary for May 27, 2022 Units:  Both    English   Metric
Daily Weekly Monthly Yearly Custom
  High: Low: Average:
Temperature: 89.2 °F /  31.8 °C 51.3 °F /  10.7 °C 71.2 °F /  21.8 °C
Dew Point: 63.2 °F /  17.3 °C 48.1 °F /  8.9 °C 56.4 °F /  13.6 °C
Humidity: 91% 38% 64%
Wind Speed: 7mph /  11.3km/h - 1.4mph /  2.3km/h
Wind Gust: 11mph /  17.7km/h - -
Wind- - South
Pressure: 30.23 in /  1023.6 hPa 29.99 in /  1015.5 hPa -
Precipitation: 0.00 in /  0 mm    
Historical Graphs
 
 
Tabular Data for May 27, 2022
Time Temperature Dew Point Pressure Wind Wind Speed Wind Gust Humidity Rainfall Rate (Hourly) solar Conditions
00:00 61.3 °F /  16.3 °C 54.7 °F /  12.6 °C 30.22in /  1023.2hPa NW 1mph /  1.6km/h 2mph /  3.2km/h 79% 0.00in /  0mm 0 W/m2
00:10 60.9 °F /  16.1 °C 54.3 °F /  12.4 °C 30.22in /  1023.2hPa NW 1mph /  1.6km/h 2mph /  3.2km/h 79% 0.00in /  0mm 0 W/m2
00:20 60.3 °F /  15.7 °C 53.8 °F /  12.1 °C 30.22in /  1023.2hPa West 1mph /  1.6km/h 2mph /  3.2km/h 79% 0.00in /  0mm 0 W/m2
00:30 60 °F /  15.6 °C 53.8 °F /  12.1 °C 30.22in /  1023.2hPa Calm   2mph /  3.2km/h 80% 0.00in /  0mm 0 W/m2
00:40 59.4 °F /  15.2 °C 53.2 °F /  11.8 °C 30.23in /  1023.6hPa Calm   3mph /  4.8km/h 80% 0.00in /  0mm 0 W/m2
00:50 59 °F /  15 °C 53.2 °F /  11.8 °C 30.23in /  1023.6hPa Calm   2mph /  3.2km/h 81% 0.00in /  0mm 0 W/m2
01:00 58.7 °F /  14.8 °C 52.9 °F /  11.6 °C 30.23in /  1023.6hPa Calm     81% 0.00in /  0mm 0 W/m2
01:10 58.3 °F /  14.6 °C 52.5 °F /  11.4 °C 30.23in /  1023.6hPa Calm   1mph /  1.6km/h 81% 0.00in /  0mm 0 W/m2
01:20 58.1 °F /  14.5 °C 52.3 °F /  11.3 °C 30.23in /  1023.6hPa WSW 1mph /  1.6km/h 2mph /  3.2km/h 81% 0.00in /  0mm 0 W/m2
01:30 57.7 °F /  14.3 °C 52.6 °F /  11.4 °C 30.22in /  1023.2hPa Calm   2mph /  3.2km/h 83% 0.00in /  0mm 0 W/m2
01:40 57.7 °F /  14.3 °C 52.6 °F /  11.4 °C 30.22in /  1023.2hPa Calm   2mph /  3.2km/h 83% 0.00in /  0mm 0 W/m2
01:50 57.4 °F /  14.1 °C 52.3 °F /  11.3 °C 30.22in /  1023.2hPa North 1mph /  1.6km/h 2mph /  3.2km/h 83% 0.00in /  0mm 0 W/m2
02:00 57 °F /  13.9 °C 51.9 °F /  11.1 °C 30.22in /  1023.2hPa Calm   2mph /  3.2km/h 83% 0.00in /  0mm 0 W/m2
02:10 56.5 °F /  13.6 °C 51.4 °F /  10.8 °C 30.22in /  1023.2hPa Calm   2mph /  3.2km/h 83% 0.00in /  0mm 0 W/m2
02:20 55.8 °F /  13.2 °C 51.1 °F /  10.6 °C 30.22in /  1023.2hPa West 2mph /  3.2km/h 3mph /  4.8km/h 84% 0.00in /  0mm 0 W/m2
02:30 55.4 °F /  13 °C 50.6 °F /  10.3 °C 30.22in /  1023.2hPa West 3mph /  4.8km/h 5mph /  8km/h 84% 0.00in /  0mm 0 W/m2
02:40 55 °F /  12.8 °C 50.6 °F /  10.3 °C 30.22in /  1023.2hPa WNW 1mph /  1.6km/h 6mph /  9.7km/h 85% 0.00in /  0mm 0 W/m2
02:50 54.9 °F /  12.7 °C 50.1 °F /  10.1 °C 30.21in /  1022.9hPa WNW 1mph /  1.6km/h 3mph /  4.8km/h 84% 0.00in /  0mm 0 W/m2
03:00 54.4 °F /  12.4 °C 49.9 °F /  9.9 °C 30.21in /  1022.9hPa West 1mph /  1.6km/h 3mph /  4.8km/h 85% 0.00in /  0mm 0 W/m2
03:10 54.3 °F /  12.4 °C 49.9 °F /  9.9 °C 30.21in /  1022.9hPa Calm   3mph /  4.8km/h 85% 0.00in /  0mm 0 W/m2
03:20 54.3 °F /  12.4 °C 49.9 °F /  9.9 °C 30.22in /  1023.2hPa Calm   2mph /  3.2km/h 85% 0.00in /  0mm 0 W/m2
03:30 54.3 °F /  12.4 °C 49.9 °F /  9.9 °C 30.21in /  1022.9hPa Calm   2mph /  3.2km/h 85% 0.00in /  0mm 0 W/m2
03:40 54.1 °F /  12.3 °C 49.7 °F /  9.8 °C 30.21in /  1022.9hPa Calm   1mph /  1.6km/h 85% 0.00in /  0mm 0 W/m2
03:50 53.8 °F /  12.1 °C 49.4 °F /  9.7 °C 30.21in /  1022.9hPa Calm   2mph /  3.2km/h 85% 0.00in /  0mm 0 W/m2
04:00 53.4 °F /  11.9 °C 49.3 °F /  9.6 °C 30.21in /  1022.9hPa West 1mph /  1.6km/h 2mph /  3.2km/h 86% 0.00in /  0mm 0 W/m2
04:10 53.1 °F /  11.7 °C 49 °F /  9.4 °C 30.21in /  1022.9hPa West 1mph /  1.6km/h 2mph /  3.2km/h 86% 0.00in /  0mm 0 W/m2
04:20 52.8 °F /  11.6 °C 48.7 °F /  9.3 °C 30.21in /  1022.9hPa WSW 1mph /  1.6km/h 2mph /  3.2km/h 86% 0.00in /  0mm 0 W/m2
04:30 52.4 °F /  11.3 °C 48.3 °F /  9.1 °C 30.21in /  1022.9hPa Calm   2mph /  3.2km/h 86% 0.00in /  0mm 0 W/m2
04:40 52.3 °F /  11.3 °C 48.9 °F /  9.4 °C 30.21in /  1022.9hPa NW 2mph /  3.2km/h 3mph /  4.8km/h 88% 0.00in /  0mm 0 W/m2
04:50 52.3 °F /  11.3 °C 48.9 °F /  9.4 °C 30.21in /  1022.9hPa Calm   2mph /  3.2km/h 88% 0.00in /  0mm 0 W/m2
05:00 52.2 °F /  11.2 °C 48.7 °F /  9.3 °C 30.21in /  1022.9hPa Calm   1mph /  1.6km/h 88% 0.00in /  0mm 4 W/m2
05:10 52 °F /  11.1 °C 48.5 °F /  9.2 °C 30.21in /  1022.9hPa Calm   1mph /  1.6km/h 88% 0.00in /  0mm 9 W/m2
05:20 51.8 °F /  11 °C 48.4 °F /  9.1 °C 30.21in /  1022.9hPa West 1mph /  1.6km/h 2mph /  3.2km/h 88% 0.00in /  0mm 15 W/m2
05:30 51.4 °F /  10.8 °C 48.3 °F /  9.1 °C 30.21in /  1022.9hPa WSW 1mph /  1.6km/h 3mph /  4.8km/h 89% 0.00in /  0mm 27 W/m2
05:40 51.3 °F /  10.7 °C 48.1 °F /  8.9 °C 30.21in /  1022.9hPa West 2mph /  3.2km/h 3mph /  4.8km/h 89% 0.00in /  0mm 37 W/m2
05:50 51.4 °F /  10.8 °C 48.6 °F /  9.2 °C 30.21in /  1022.9hPa WNW 1mph /  1.6km/h 3mph /  4.8km/h 90% 0.00in /  0mm 47 W/m2
06:00 51.7 °F /  10.9 °C 49.2 °F /  9.6 °C 30.21in /  1022.9hPa WNW 1mph /  1.6km/h 3mph /  4.8km/h 91% 0.00in /  0mm 58 W/m2
06:10 52.2 °F /  11.2 °C 49.3 °F /  9.6 °C 30.21in /  1022.9hPa Calm   2mph /  3.2km/h 90% 0.00in /  0mm 96 W/m2
06:20 52.2 °F /  11.2 °C 49.3 °F /  9.6 °C 30.22in /  1023.2hPa Calm   2mph /  3.2km/h 90% 0.00in /  0mm 122 W/m2
06:30 52.3 °F /  11.3 °C 49.5 °F /  9.7 °C 30.21in /  1022.9hPa Calm   2mph /  3.2km/h 90% 0.00in /  0mm 145 W/m2
06:40 52.9 °F /  11.6 °C 50 °F /  10 °C 30.21in /  1022.9hPa Calm   2mph /  3.2km/h 90% 0.00in /  0mm 171 W/m2
06:50 53.4 °F /  11.9 °C 50.6 °F /  10.3 °C 30.21in /  1022.9hPa Calm   2mph /  3.2km/h 90% 0.00in /  0mm 195 W/m2
07:00 54.1 °F /  12.3 °C 51.2 °F /  10.7 °C 30.21in /  1022.9hPa Calm   2mph /  3.2km/h 90% 0.00in /  0mm 219 W/m2
07:10 54.8 °F /  12.7 °C 52.2 °F /  11.2 °C 30.21in /  1022.9hPa NNW 1mph /  1.6km/h 2mph /  3.2km/h 91% 0.00in /  0mm 250 W/m2
07:20 55.7 °F /  13.2 °C 53.1 °F /  11.7 °C 30.21in /  1022.9hPa WNW 1mph /  1.6km/h 2mph /  3.2km/h 91% 0.00in /  0mm 284 W/m2
07:30 56.8 °F /  13.8 °C 53.9 °F /  12.2 °C 30.21in /  1022.9hPa WSW 1mph /  1.6km/h 2mph /  3.2km/h 90% 0.00in /  0mm 316 W/m2
07:40 57.7 °F /  14.3 °C 54.5 °F /  12.5 °C 30.21in /  1022.9hPa WSW 1mph /  1.6km/h 2mph /  3.2km/h 89% 0.00in /  0mm 345 W/m2
07:50 58.6 °F /  14.8 °C 55.1 °F /  12.8 °C 30.21in /  1022.9hPa SSW 1mph /  1.6km/h 2mph /  3.2km/h 88% 0.00in /  0mm 376 W/m2
08:00 59.5 °F /  15.3 °C 55.3 °F /  12.9 °C 30.21in /  1022.9hPa SSW 1mph /  1.6km/h 3mph /  4.8km/h 86% 0.00in /  0mm 408 W/m2
08:10 60.6 °F /  15.9 °C 56 °F /  13.3 °C 30.21in /  1022.9hPa SW 2mph /  3.2km/h 3mph /  4.8km/h 85% 0.00in /  0mm 444 W/m2
08:20 62.4 °F /  16.9 °C 57.1 °F /  13.9 °C 30.21in /  1022.9hPa WSW 1mph /  1.6km/h 3mph /  4.8km/h 83% 0.00in /  0mm 477 W/m2
08:30 64.4 °F /  18 °C 57.4 °F /  14.1 °C 30.20in /  1022.6hPa SW 2mph /  3.2km/h 3mph /  4.8km/h 78% 0.00in /  0mm 519 W/m2
08:40 66.2 °F /  19 °C 57.6 °F /  14.2 °C 30.20in /  1022.6hPa WSW 2mph /  3.2km/h 5mph /  8km/h 74% 0.00in /  0mm 553 W/m2
08:50 67.8 °F /  19.9 °C 58.4 °F /  14.7 °C 30.19in /  1022.2hPa SW 2mph /  3.2km/h 5mph /  8km/h 72% 0.00in /  0mm 583 W/m2
09:00 69.1 °F /  20.6 °C 58.5 °F /  14.7 °C 30.19in /  1022.2hPa South 2mph /  3.2km/h 3mph /  4.8km/h 69% 0.00in /  0mm 599 W/m2
09:10 70.5 °F /  21.4 °C 59.4 °F /  15.2 °C 30.19in /  1022.2hPa West 2mph /  3.2km/h 4mph /  6.4km/h 68% 0.00in /  0mm 623 W/m2
09:20 71.6 °F /  22 °C 59.2 °F /  15.1 °C 30.19in /  1022.2hPa West 1mph /  1.6km/h 3mph /  4.8km/h 65% 0.00in /  0mm 662 W/m2
09:30 72.7 °F /  22.6 °C 58 °F /  14.4 °C 30.19in /  1022.2hPa North 2mph /  3.2km/h 6mph /  9.7km/h 60% 0.00in /  0mm 695 W/m2
09:40 73.4 °F /  23 °C 58.7 °F /  14.8 °C 30.18in /  1021.9hPa ENE 1mph /  1.6km/h 6mph /  9.7km/h 60% 0.00in /  0mm 717 W/m2
09:50 74.6 °F /  23.7 °C 58.9 °F /  14.9 °C 30.18in /  1021.9hPa SSE 1mph /  1.6km/h 5mph /  8km/h 58% 0.00in /  0mm 743 W/m2
10:00 75.9 °F /  24.4 °C 59.6 °F /  15.3 °C 30.18in /  1021.9hPa SSW 1mph /  1.6km/h 4mph /  6.4km/h 57% 0.00in /  0mm 766 W/m2
10:10 76.6 °F /  24.8 °C 58.2 °F /  14.6 °C 30.18in /  1021.9hPa East 3mph /  4.8km/h 6mph /  9.7km/h 53% 0.00in /  0mm 792 W/m2
10:20 77.3 °F /  25.2 °C 56.7 °F /  13.7 °C 30.17in /  1021.6hPa East 2mph /  3.2km/h 6mph /  9.7km/h 49% 0.00in /  0mm 812 W/m2
10:30 78.1 °F /  25.6 °C 56.8 °F /  13.8 °C 30.17in /  1021.6hPa NNE 2mph /  3.2km/h 7mph /  11.3km/h 48% 0.00in /  0mm 832 W/m2
10:40 78.6 °F /  25.9 °C 55.5 °F /  13.1 °C 30.17in /  1021.6hPa ENE 5mph /  8km/h 8mph /  12.9km/h 45% 0.00in /  0mm 170 W/m2
10:50 78.8 °F /  26 °C 54.4 °F /  12.4 °C 30.16in /  1021.2hPa ESE 2mph /  3.2km/h 6mph /  9.7km/h 43% 0.00in /  0mm 360 W/m2
11:00 79.5 °F /  26.4 °C 56.3 °F /  13.5 °C 30.16in /  1021.2hPa NNE 1mph /  1.6km/h 7mph /  11.3km/h 45% 0.00in /  0mm 398 W/m2
11:10 80.2 °F /  26.8 °C 56.9 °F /  13.8 °C 30.16in /  1021.2hPa ENE 3mph /  4.8km/h 7mph /  11.3km/h 45% 0.00in /  0mm 281 W/m2
11:20 80.8 °F /  27.1 °C 55.5 °F /  13.1 °C 30.16in /  1021.2hPa NNE 1mph /  1.6km/h 6mph /  9.7km/h 42% 0.00in /  0mm 822 W/m2
11:30 81.5 °F /  27.5 °C 56.8 °F /  13.8 °C 30.15in /  1020.9hPa NE 3mph /  4.8km/h 8mph /  12.9km/h 43% 0.00in /  0mm 922 W/m2
11:40 82 °F /  27.8 °C 55.3 °F /  12.9 °C 30.15in /  1020.9hPa NE 3mph /  4.8km/h 8mph /  12.9km/h 40% 0.00in /  0mm 933 W/m2
11:50 82.4 °F /  28 °C 55 °F /  12.8 °C 30.15in /  1020.9hPa NE 3mph /  4.8km/h 7mph /  11.3km/h 39% 0.00in /  0mm 942 W/m2
12:00 83.1 °F /  28.4 °C 57.6 °F /  14.2 °C 30.15in /  1020.9hPa NNE 1mph /  1.6km/h 8mph /  12.9km/h 42% 0.00in /  0mm 950 W/m2
12:10 83.8 °F /  28.8 °C 58.3 °F /  14.6 °C 30.14in /  1020.5hPa East 3mph /  4.8km/h 9mph /  14.5km/h 42% 0.00in /  0mm 951 W/m2
12:20 84 °F /  28.9 °C 57.1 °F /  13.9 °C 30.14in /  1020.5hPa ENE 2mph /  3.2km/h 11mph /  17.7km/h 40% 0.00in /  0mm 926 W/m2
12:30 84.3 °F /  29.1 °C 56.7 °F /  13.7 °C 30.14in /  1020.5hPa NNE 2mph /  3.2km/h 7mph /  11.3km/h 39% 0.00in /  0mm 603 W/m2
12:40 84.4 °F /  29.1 °C 57.4 °F /  14.1 °C 30.13in /  1020.2hPa NNE 7mph /  11.3km/h 10mph /  16.1km/h 40% 0.00in /  0mm 415 W/m2
12:50 84.6 °F /  29.2 °C 57.6 °F /  14.2 °C 30.13in /  1020.2hPa ENE 3mph /  4.8km/h 8mph /  12.9km/h 40% 0.00in /  0mm 912 W/m2
13:00 85.3 °F /  29.6 °C 58.2 °F /  14.6 °C 30.12in /  1019.9hPa NE 6mph /  9.7km/h 8mph /  12.9km/h 40% 0.00in /  0mm 477 W/m2
13:10 85.6 °F /  29.8 °C 58.5 °F /  14.7 °C 30.12in /  1019.9hPa North 5mph /  8km/h 9mph /  14.5km/h 40% 0.00in /  0mm 950 W/m2
13:20 85.8 °F /  29.9 °C 58 °F /  14.4 °C 30.12in /  1019.9hPa ENE 3mph /  4.8km/h 10mph /  16.1km/h 39% 0.00in /  0mm 943 W/m2
13:30 85.5 °F /  29.7 °C 57.7 °F /  14.3 °C 30.11in /  1019.5hPa East 5mph /  8km/h 9mph /  14.5km/h 39% 0.00in /  0mm 934 W/m2
13:40 85.8 °F /  29.9 °C 58 °F /  14.4 °C 30.11in /  1019.5hPa NE 2mph /  3.2km/h 9mph /  14.5km/h 39% 0.00in /  0mm 922 W/m2
13:50 86.2 °F /  30.1 °C 58.3 °F /  14.6 °C 30.10in /  1019.2hPa NNW 2mph /  3.2km/h 9mph /  14.5km/h 39% 0.00in /  0mm 898 W/m2
14:00 86.5 °F /  30.3 °C 58.6 °F /  14.8 °C 30.10in /  1019.2hPa NNW 2mph /  3.2km/h 9mph /  14.5km/h 39% 0.00in /  0mm 890 W/m2
14:10 86.9 °F /  30.5 °C 58.2 °F /  14.6 °C 30.09in /  1018.8hPa NE 2mph /  3.2km/h 8mph /  12.9km/h 38% 0.00in /  0mm 873 W/m2
14:20 86.7 °F /  30.4 °C 60.9 °F /  16.1 °C 30.09in /  1018.8hPa ENE 3mph /  4.8km/h 7mph /  11.3km/h 42% 0.00in /  0mm 860 W/m2
14:30 87.3 °F /  30.7 °C 59.3 °F /  15.2 °C 30.08in /  1018.5hPa NNE 1mph /  1.6km/h 8mph /  12.9km/h 39% 0.00in /  0mm 841 W/m2
14:40 87.4 °F /  30.8 °C 59.4 °F /  15.2 °C 30.08in /  1018.5hPa South 1mph /  1.6km/h 5mph /  8km/h 39% 0.00in /  0mm 821 W/m2
14:50 87.3 °F /  30.7 °C 59.3 °F /  15.2 °C 30.07in /  1018.2hPa ENE 2mph /  3.2km/h 7mph /  11.3km/h 39% 0.00in /  0mm 797 W/m2
15:00 88.2 °F /  31.2 °C 60.1 °F /  15.6 °C 30.06in /  1017.8hPa North 3mph /  4.8km/h 7mph /  11.3km/h 39% 0.00in /  0mm 776 W/m2
15:10 88.5 °F /  31.4 °C 60.4 °F /  15.8 °C 30.06in /  1017.8hPa North 1mph /  1.6km/h 7mph /  11.3km/h 39% 0.00in /  0mm 752 W/m2
15:20 88.9 °F /  31.6 °C 60.7 °F /  15.9 °C 30.06in /  1017.8hPa NNW 2mph /  3.2km/h 4mph /  6.4km/h 39% 0.00in /  0mm 717 W/m2
15:30 88.9 °F /  31.6 °C 60 °F /  15.6 °C 30.05in /  1017.5hPa North 2mph /  3.2km/h 8mph /  12.9km/h 38% 0.00in /  0mm 690 W/m2
15:40 89.1 °F /  31.7 °C 60.1 °F /  15.6 °C 30.05in /  1017.5hPa NNW 3mph /  4.8km/h 8mph /  12.9km/h 38% 0.00in /  0mm 667 W/m2
15:50 89.2 °F /  31.8 °C 61 °F /  16.1 °C 30.05in /  1017.5hPa North 3mph /  4.8km/h 8mph /  12.9km/h 39% 0.00in /  0mm 641 W/m2
16:00 89.1 °F /  31.7 °C 60.9 °F /  16.1 °C 30.04in /  1017.2hPa NE 5mph /  8km/h 8mph /  12.9km/h 39% 0.00in /  0mm 634 W/m2
16:10 89.1 °F /  31.7 °C 60.9 °F /  16.1 °C 30.04in /  1017.2hPa NNE 2mph /  3.2km/h 8mph /  12.9km/h 39% 0.00in /  0mm 423 W/m2
16:20 88.4 °F /  31.3 °C 60.3 °F /  15.7 °C 30.04in /  1017.2hPa NNW 2mph /  3.2km/h 8mph /  12.9km/h 39% 0.00in /  0mm 375 W/m2
16:30 88.2 °F /  31.2 °C 60.8 °F /  16 °C 30.03in /  1016.8hPa North 2mph /  3.2km/h 5mph /  8km/h 40% 0.00in /  0mm 376 W/m2
16:40 87.8 °F /  31 °C 59.8 °F /  15.4 °C 30.02in /  1016.5hPa NNE 2mph /  3.2km/h 5mph /  8km/h 39% 0.00in /  0mm 405 W/m2
16:50 88 °F /  31.1 °C 59.9 °F /  15.5 °C 30.02in /  1016.5hPa NNE 2mph /  3.2km/h 5mph /  8km/h 39% 0.00in /  0mm 404 W/m2
17:00 88 °F /  31.1 °C 59.9 °F /  15.5 °C 30.02in /  1016.5hPa NW 1mph /  1.6km/h 3mph /  4.8km/h 39% 0.00in /  0mm 365 W/m2
17:10 88 °F /  31.1 °C 59.9 °F /  15.5 °C 30.01in /  1016.1hPa North 3mph /  4.8km/h 6mph /  9.7km/h 39% 0.00in /  0mm 370 W/m2
17:20 88.2 °F /  31.2 °C 60.8 °F /  16 °C 30.01in /  1016.1hPa Calm   5mph /  8km/h 40% 0.00in /  0mm 372 W/m2
17:30 88.2 °F /  31.2 °C 60.1 °F /  15.6 °C 30.01in /  1016.1hPa ENE 1mph /  1.6km/h 5mph /  8km/h 39% 0.00in /  0mm 204 W/m2
17:40 88 °F /  31.1 °C 59.9 °F /  15.5 °C 30.01in /  1016.1hPa SSE 1mph /  1.6km/h 3mph /  4.8km/h 39% 0.00in /  0mm 339 W/m2
17:50 88.2 °F /  31.2 °C 60.8 °F /  16 °C 30.00in /  1015.8hPa SW 1mph /  1.6km/h 4mph /  6.4km/h 40% 0.00in /  0mm 292 W/m2
18:00 88 °F /  31.1 °C 59.9 °F /  15.5 °C 30.00in /  1015.8hPa South 1mph /  1.6km/h 5mph /  8km/h 39% 0.00in /  0mm 238 W/m2
18:10 87.6 °F /  30.9 °C 59.6 °F /  15.3 °C 30.00in /  1015.8hPa South 2mph /  3.2km/h 5mph /  8km/h 39% 0.00in /  0mm 150 W/m2
18:20 87.1 °F /  30.6 °C 59.8 °F /  15.4 °C 30.00in /  1015.8hPa South 2mph /  3.2km/h 6mph /  9.7km/h 40% 0.00in /  0mm 104 W/m2
18:30 86.4 °F /  30.2 °C 60.6 °F /  15.9 °C 30.00in /  1015.8hPa South 1mph /  1.6km/h 5mph /  8km/h 42% 0.00in /  0mm 81 W/m2
18:40 85.8 °F /  29.9 °C 60.7 °F /  15.9 °C 30.00in /  1015.8hPa SSW 1mph /  1.6km/h 3mph /  4.8km/h 43% 0.00in /  0mm 73 W/m2
18:50 85.3 °F /  29.6 °C 61.5 °F /  16.4 °C 30.00in /  1015.8hPa SSW 1mph /  1.6km/h 3mph /  4.8km/h 45% 0.00in /  0mm 94 W/m2
19:00 84.6 °F /  29.2 °C 62.1 °F /  16.7 °C 30.00in /  1015.8hPa SSW 1mph /  1.6km/h 4mph /  6.4km/h 47% 0.00in /  0mm 85 W/m2
19:10 83.5 °F /  28.6 °C 62.3 °F /  16.8 °C 30.00in /  1015.8hPa South 3mph /  4.8km/h 5mph /  8km/h 49% 0.00in /  0mm 72 W/m2
19:20 82.6 °F /  28.1 °C 63.2 °F /  17.3 °C 30.00in /  1015.8hPa SSW 1mph /  1.6km/h 4mph /  6.4km/h 52% 0.00in /  0mm 53 W/m2
19:30 81.9 °F /  27.7 °C 63.1 °F /  17.3 °C 29.99in /  1015.5hPa SW 1mph /  1.6km/h 3mph /  4.8km/h 53% 0.00in /  0mm 32 W/m2
19:40 81 °F /  27.2 °C 62.8 °F /  17.1 °C 30.00in /  1015.8hPa SW 1mph /  1.6km/h 3mph /  4.8km/h 54% 0.00in /  0mm 16 W/m2
19:50 79.9 °F /  26.6 °C 62.3 °F /  16.8 °C 30.00in /  1015.8hPa SSE 1mph /  1.6km/h 4mph /  6.4km/h 55% 0.00in /  0mm 9 W/m2
20:00 78.8 °F /  26 °C 62.8 °F /  17.1 °C 30.00in /  1015.8hPa South 1mph /  1.6km/h 5mph /  8km/h 58% 0.00in /  0mm 3 W/m2
20:10 77.7 °F /  25.4 °C 62.2 °F /  16.8 °C 30.00in /  1015.8hPa South 2mph /  3.2km/h 5mph /  8km/h 59% 0.00in /  0mm 0 W/m2
20:20 77 °F /  25 °C 62 °F /  16.7 °C 30.00in /  1015.8hPa SSW 1mph /  1.6km/h 3mph /  4.8km/h 60% 0.00in /  0mm 0 W/m2
20:30 76.3 °F /  24.6 °C 62.3 °F /  16.8 °C 30.00in /  1015.8hPa SW 1mph /  1.6km/h 2mph /  3.2km/h 62% 0.00in /  0mm 0 W/m2
20:40 75.4 °F /  24.1 °C 61.9 °F /  16.6 °C 30.00in /  1015.8hPa SSW 1mph /  1.6km/h 2mph /  3.2km/h 63% 0.00in /  0mm 0 W/m2
20:50 74.7 °F /  23.7 °C 61.7 °F /  16.5 °C 30.01in /  1016.1hPa SW 1mph /  1.6km/h 2mph /  3.2km/h 64% 0.00in /  0mm 0 W/m2
21:00 73.9 °F /  23.3 °C 61 °F /  16.1 °C 30.01in /  1016.1hPa WSW 1mph /  1.6km/h 2mph /  3.2km/h 64% 0.00in /  0mm 0 W/m2
21:10 73.2 °F /  22.9 °C 60.7 °F /  15.9 °C 30.01in /  1016.1hPa Calm   2mph /  3.2km/h 65% 0.00in /  0mm 0 W/m2
21:20 72.5 °F /  22.5 °C 60.9 °F /  16.1 °C 30.02in /  1016.5hPa WSW 1mph /  1.6km/h 2mph /  3.2km/h 67% 0.00in /  0mm 0 W/m2
21:30 71.8 °F /  22.1 °C 60.6 °F /  15.9 °C 30.02in /  1016.5hPa Calm   2mph /  3.2km/h 68% 0.00in /  0mm 0 W/m2
21:40 71.1 °F /  21.7 °C 60 °F /  15.6 °C 30.02in /  1016.5hPa Calm   1mph /  1.6km/h 68% 0.00in /  0mm 0 W/m2
21:50 70.5 °F /  21.4 °C 59.9 °F /  15.5 °C 30.02in /  1016.5hPa Calm   2mph /  3.2km/h 69% 0.00in /  0mm 0 W/m2
22:00 70 °F /  21.1 °C 59.3 °F /  15.2 °C 30.02in /  1016.5hPa SSW 2mph /  3.2km/h 5mph /  8km/h 69% 0.00in /  0mm 0 W/m2
22:10 69.3 °F /  20.7 °C 59.1 °F /  15.1 °C 30.01in /  1016.1hPa SE 1mph /  1.6km/h 5mph /  8km/h 70% 0.00in /  0mm 0 W/m2
22:20 68.9 °F /  20.5 °C 58.7 °F /  14.8 °C 30.01in /  1016.1hPa Calm   1mph /  1.6km/h 70% 0.00in /  0mm 0 W/m2
22:30 68.4 °F /  20.2 °C 59 °F /  15 °C 30.01in /  1016.1hPa Calm   3mph /  4.8km/h 72% 0.00in /  0mm 0 W/m2
22:40 67.8 °F /  19.9 °C 58.8 °F /  14.9 °C 30.01in /  1016.1hPa Calm   2mph /  3.2km/h 73% 0.00in /  0mm 0 W/m2
22:50 67.3 °F /  19.6 °C 58.3 °F /  14.6 °C 30.01in /  1016.1hPa NW 1mph /  1.6km/h 3mph /  4.8km/h 73% 0.00in /  0mm 0 W/m2
23:00 66.7 °F /  19.3 °C 58.2 °F /  14.6 °C 30.01in /  1016.1hPa Calm   2mph /  3.2km/h 74% 0.00in /  0mm 0 W/m2
23:10 66.4 °F /  19.1 °C 57.8 °F /  14.3 °C 30.01in /  1016.1hPa Calm   4mph /  6.4km/h 74% 0.00in /  0mm 0 W/m2
23:20 66 °F /  18.9 °C 57.5 °F /  14.2 °C 30.01in /  1016.1hPa Calm   2mph /  3.2km/h 74% 0.00in /  0mm 0 W/m2
23:30 65.1 °F /  18.4 °C 57 °F /  13.9 °C 30.01in /  1016.1hPa Calm   2mph /  3.2km/h 75% 0.00in /  0mm 0 W/m2
23:40 64.7 °F /  18.2 °C 57.4 °F /  14.1 °C 30.01in /  1016.1hPa West 1mph /  1.6km/h 4mph /  6.4km/h 77% 0.00in /  0mm 0 W/m2
23:50 64.2 °F /  17.9 °C 57.2 °F /  14 °C 30.01in /  1016.1hPa West 2mph /  3.2km/h 4mph /  6.4km/h 78% 0.00in /  0mm 0 W/m2
Knjazevac, Serbia
Compliments of Weather Underground - 2 mb